Time;durP1;ratioP1;P1;durP2;ratioP2;P2;SDS_P1;SDS_P2;PMS_P1;PMS_P2;Temp;Humidity;BMP_temperature;BMP_pressure;BME280_temperature;BME280_humidity;BME280_pressure;Samples;Min_cycle;Max_cycle;Signal;HPM_P1;HPM_P2
2022/12/25 00:00:11;;;;;;;50.75;15.98;;;5.30;99.90;;;;;;5104906;27;20096;-81
2022/12/25 00:02:38;;;;;;;42.38;15.88;;;5.30;99.90;;;;;;5116824;27;20073;-81
2022/12/25 00:05:05;;;;;;;53.15;16.67;;;5.30;99.90;;;;;;5114058;28;20079;-81
2022/12/25 00:07:31;;;;;;;47.15;15.98;;;5.30;99.90;;;;;;5119091;28;20040;-81
2022/12/25 00:09:56;;;;;;;44.45;15.77;;;5.40;99.90;;;;;;5100295;28;20072;-80
2022/12/25 00:12:22;;;;;;;46.72;18.02;;;5.30;99.90;;;;;;5118329;28;20429;-81
2022/12/25 00:14:47;;;;;;;44.65;16.25;;;5.30;99.90;;;;;;5119244;27;20042;-81
2022/12/25 00:17:13;;;;;;;49.50;16.63;;;5.30;99.90;;;;;;5127969;27;20067;-81
2022/12/25 00:19:39;;;;;;;50.42;15.80;;;5.30;99.90;;;;;;5105597;28;20126;-81
2022/12/25 00:22:04;;;;;;;44.67;16.58;;;5.20;99.90;;;;;;5108635;28;20400;-79
2022/12/25 00:24:30;;;;;;;49.75;16.67;;;5.20;99.90;;;;;;5125961;28;20051;-82
2022/12/25 00:26:55;;;;;;;45.97;15.88;;;5.20;99.90;;;;;;5099516;28;20046;-80
2022/12/25 00:29:21;;;;;;;49.30;17.10;;;5.20;99.90;;;;;;5135994;28;20079;-81
2022/12/25 00:31:47;;;;;;;54.90;17.35;;;5.10;99.90;;;;;;5128236;28;20039;-82
2022/12/25 00:34:12;;;;;;;57.13;17.35;;;5.20;99.90;;;;;;5127095;28;20027;-81
2022/12/25 00:36:38;;;;;;;58.17;18.67;;;5.30;99.90;;;;;;5099183;28;20036;-82
2022/12/25 00:39:04;;;;;;;50.97;17.13;;;5.20;99.90;;;;;;5131753;28;20390;-81
2022/12/25 00:44:13;;;;;;;49.95;16.95;;;5.30;99.90;;;;;;5117538;28;20063;-80
2022/12/25 00:46:40;;;;;;;59.72;16.38;;;5.30;99.90;;;;;;5127308;28;20032;-81
2022/12/25 00:49:06;;;;;;;55.13;17.63;;;5.30;99.90;;;;;;5111671;28;20101;-81
2022/12/25 00:51:32;;;;;;;57.15;16.92;;;5.30;99.90;;;;;;5107707;28;20043;-80
2022/12/25 00:53:58;;;;;;;49.35;16.80;;;5.30;99.90;;;;;;5107629;28;20096;-80
2022/12/25 00:56:24;;;;;;;49.72;16.05;;;5.30;99.90;;;;;;5109363;28;20039;-82
2022/12/25 00:58:50;;;;;;;46.00;15.75;;;5.30;99.90;;;;;;5104121;28;20049;-80
2022/12/25 01:01:16;;;;;;;54.10;16.52;;;5.30;99.90;;;;;;5114232;28;20126;-81
2022/12/25 01:03:41;;;;;;;49.92;16.13;;;5.30;99.90;;;;;;5134092;28;20058;-82
2022/12/25 01:06:07;;;;;;;50.78;17.13;;;5.30;99.90;;;;;;5106373;28;20046;-83
2022/12/25 01:08:35;;;;;;;55.60;16.60;;;5.30;99.90;;;;;;5136716;27;20043;-82
2022/12/25 01:11:05;;;;;;;54.05;17.25;;;5.40;99.90;;;;;;5120794;28;20039;-82
2022/12/25 01:13:33;;;;;;;53.38;16.33;;;5.40;99.90;;;;;;5133108;27;20039;-81
2022/12/25 01:16:05;;;;;;;50.03;16.73;;;5.40;99.90;;;;;;5122414;28;20438;-82
2022/12/25 01:18:30;;;;;;;65.80;17.50;;;5.50;99.90;;;;;;5109479;27;20047;-82
2022/12/25 01:20:56;;;;;;;58.08;18.05;;;5.50;99.90;;;;;;5118752;27;20042;-82
2022/12/25 01:23:21;;;;;;;56.90;17.38;;;5.50;99.90;;;;;;5122056;27;20472;-81
2022/12/25 01:25:47;;;;;;;61.42;18.33;;;5.60;99.90;;;;;;5116306;27;20035;-79
2022/12/25 01:28:12;;;;;;;70.45;18.00;;;5.60;99.90;;;;;;5119540;27;20107;-81
2022/12/25 01:30:38;;;;;;;62.85;18.10;;;5.60;99.90;;;;;;5115189;27;20235;-82
2022/12/25 01:33:04;;;;;;;60.45;18.45;;;5.70;99.90;;;;;;5128855;27;20051;-81
2022/12/25 01:35:29;;;;;;;68.97;18.73;;;5.70;99.90;;;;;;5115547;27;20067;-81
2022/12/25 01:37:55;;;;;;;63.60;18.52;;;5.80;99.90;;;;;;5135977;27;20035;-78
2022/12/25 01:40:20;;;;;;;67.50;18.17;;;5.90;99.90;;;;;;5141088;27;20590;-81
2022/12/25 01:42:46;;;;;;;69.20;19.20;;;5.90;99.90;;;;;;5108104;27;20054;-82
2022/12/25 01:45:17;;;;;;;59.83;18.13;;;5.90;99.90;;;;;;5135216;27;20499;-81
2022/12/25 01:47:43;;;;;;;66.93;19.48;;;5.90;99.90;;;;;;5134187;27;20108;-81
2022/12/25 01:50:08;;;;;;;54.92;19.17;;;5.90;99.90;;;;;;5114395;27;20047;-82
2022/12/25 01:52:34;;;;;;;57.42;18.70;;;6.00;99.90;;;;;;5121043;27;20542;-81
2022/12/25 01:55:07;;;;;;;60.78;18.88;;;6.00;99.90;;;;;;5138792;27;20047;-80
2022/12/25 01:57:36;;;;;;;67.13;19.15;;;6.00;99.90;;;;;;5111596;28;20109;-81
2022/12/25 02:00:04;;;;;;;51.47;18.65;;;6.00;99.90;;;;;;5139890;27;20043;-82
2022/12/25 02:02:29;;;;;;;65.28;19.30;;;6.10;99.90;;;;;;5121691;28;20039;-82
2022/12/25 02:05:24;;;;;;;60.10;18.27;;;6.10;99.90;;;;;;5111094;27;20050;-82
2022/12/25 02:07:51;;;;;;;65.18;20.00;;;6.10;99.90;;;;;;5109433;27;20047;-82
2022/12/25 02:10:17;;;;;;;62.88;19.88;;;6.10;99.90;;;;;;5112180;27;20800;-81
2022/12/25 02:12:44;;;;;;;68.80;22.20;;;6.20;99.90;;;;;;5107435;27;20125;-83
2022/12/25 02:15:16;;;;;;;59.65;18.23;;;6.20;99.90;;;;;;5117279;27;20143;-81
2022/12/25 02:17:50;;;;;;;72.90;20.90;;;6.20;99.90;;;;;;5132781;27;20051;-81
2022/12/25 02:20:42;;;;;;;69.40;20.70;;;6.20;99.90;;;;;;5135792;27;20412;-82
2022/12/25 02:23:19;;;;;;;61.75;19.63;;;6.20;99.90;;;;;;5129213;27;20044;-82
2022/12/25 02:26:22;;;;;;;61.88;19.10;;;6.30;99.90;;;;;;5101637;28;20390;-82
2022/12/25 02:28:59;;;;;;;56.05;19.40;;;6.30;99.90;;;;;;5102483;28;20516;-79
2022/12/25 02:31:36;;;;;;;71.50;19.88;;;6.30;99.90;;;;;;5102254;28;20051;-79
2022/12/25 02:34:19;;;;;;;57.42;20.42;;;6.30;99.90;;;;;;5130509;27;20057;-80
2022/12/25 02:37:10;;;;;;;74.68;22.60;;;6.30;99.90;;;;;;5118524;28;20036;-80
2022/12/25 02:39:58;;;;;;;66.05;20.65;;;6.40;99.90;;;;;;5059092;28;20059;-82
2022/12/25 03:07:43;;;;;;;66.03;21.75;;;6.50;99.90;;;;;;5100274;28;20052;-82
2022/12/25 03:13:20;;;;;;;60.67;20.60;;;6.50;99.90;;;;;;5107593;27;20046;-81
2022/12/25 03:18:32;;;;;;;55.20;19.58;;;6.50;99.90;;;;;;5112322;27;20047;-82
2022/12/25 03:31:10;;;;;;;54.22;20.95;;;6.50;99.90;;;;;;5136135;27;20039;-82
2022/12/25 03:32:11;;;;;;;47.08;19.05;;;6.50;99.90;;;;;;5131862;27;20088;-82
2022/12/25 04:36:47;;;;;;;70.30;23.30;;;7.00;99.90;;;;;;5109910;28;20039;-82
2022/12/25 04:39:12;;;;;;;63.13;22.95;;;7.00;99.90;;;;;;5109168;28;20370;-82
2022/12/25 04:41:38;;;;;;;74.55;22.55;;;7.10;99.90;;;;;;5114445;28;20043;-82
2022/12/25 04:44:04;;;;;;;66.50;23.17;;;7.10;99.90;;;;;;5105363;27;20035;-82
2022/12/25 04:46:29;;;;;;;68.63;22.02;;;7.10;99.90;;;;;;5107949;27;20031;-82
2022/12/25 04:48:55;;;;;;;78.93;25.48;;;7.20;99.90;;;;;;5119415;27;20049;-82
2022/12/25 04:51:23;;;;;;;77.20;22.10;;;7.20;99.90;;;;;;5138300;27;20039;-80
2022/12/25 04:53:50;;;;;;;77.32;25.48;;;7.20;99.90;;;;;;5115441;27;20047;-81
2022/12/25 04:56:16;;;;;;;64.82;23.20;;;7.20;99.90;;;;;;5120983;27;20125;-82
2022/12/25 04:58:42;;;;;;;75.75;22.92;;;7.20;99.90;;;;;;5117986;27;20047;-82
2022/12/25 05:01:08;;;;;;;72.80;23.08;;;7.20;99.90;;;;;;5115178;27;20039;-81
2022/12/25 05:03:34;;;;;;;56.50;22.00;;;7.30;99.90;;;;;;5133888;27;20039;-82
2022/12/25 05:06:00;;;;;;;68.68;21.85;;;7.20;99.90;;;;;;5114016;28;20035;-82
2022/12/25 05:08:31;;;;;;;67.47;21.90;;;7.30;99.90;;;;;;5105254;27;20039;-82
2022/12/25 05:10:56;;;;;;;64.43;22.95;;;7.30;99.90;;;;;;5109900;27;20063;-81
2022/12/25 05:13:22;;;;;;;69.45;23.27;;;7.30;99.90;;;;;;5119624;27;20114;-82
2022/12/25 05:15:48;;;;;;;67.60;22.83;;;7.30;99.90;;;;;;5111656;27;20104;-81
2022/12/25 05:18:13;;;;;;;64.28;21.70;;;7.30;99.90;;;;;;5133273;27;20054;-83
2022/12/25 05:20:39;;;;;;;67.57;22.27;;;7.40;99.90;;;;;;5117777;27;20054;-82
2022/12/25 05:23:04;;;;;;;67.53;21.67;;;7.40;99.90;;;;;;5113816;28;20115;-82
2022/12/25 05:25:30;;;;;;;71.38;22.15;;;7.40;99.90;;;;;;5120670;27;20031;-83
2022/12/25 05:27:56;;;;;;;72.80;22.08;;;7.40;99.90;;;;;;5137278;27;20031;-82
2022/12/25 05:30:21;;;;;;;67.88;21.77;;;7.50;99.90;;;;;;5137785;27;20051;-82
2022/12/25 05:32:47;;;;;;;67.30;22.38;;;7.40;99.90;;;;;;5120278;27;20038;-81
2022/12/25 05:35:13;;;;;;;77.60;23.50;;;7.40;99.90;;;;;;5100552;28;20039;-82
2022/12/25 05:37:39;;;;;;;66.93;23.38;;;7.40;99.90;;;;;;5119461;28;20419;-81
2022/12/25 05:40:05;;;;;;;69.45;22.83;;;7.50;99.90;;;;;;5101674;28;20040;-82
2022/12/25 05:42:30;;;;;;;77.97;23.52;;;7.40;99.90;;;;;;5101744;28;20053;-82
2022/12/25 05:44:56;;;;;;;79.43;24.60;;;7.50;99.90;;;;;;5118598;27;20359;-81
2022/12/25 05:47:22;;;;;;;83.85;23.40;;;7.50;99.90;;;;;;5116062;28;20504;-83
2022/12/25 05:49:47;;;;;;;78.97;23.48;;;7.50;99.90;;;;;;5122230;27;20035;-81
2022/12/25 05:52:13;;;;;;;73.75;24.05;;;7.50;99.90;;;;;;5118945;27;20535;-82
2022/12/25 05:54:38;;;;;;;75.13;25.48;;;7.50;99.90;;;;;;5113752;27;20561;-82
2022/12/25 05:57:04;;;;;;;74.45;23.42;;;7.50;99.90;;;;;;5123894;27;20100;-82
2022/12/25 05:59:31;;;;;;;74.60;24.25;;;7.50;99.90;;;;;;5101582;28;20035;-81
2022/12/25 06:01:58;;;;;;;83.60;23.50;;;7.50;99.90;;;;;;5100710;28;20063;-82
2022/12/25 06:04:24;;;;;;;85.78;24.50;;;7.50;99.90;;;;;;5097294;27;20156;-82
2022/12/25 06:06:49;;;;;;;70.00;23.55;;;7.60;99.90;;;;;;5106594;28;20084;-81
2022/12/25 06:09:15;;;;;;;80.28;25.92;;;7.60;99.90;;;;;;5100939;28;20040;-83
2022/12/25 06:11:41;;;;;;;79.70;24.75;;;7.60;99.90;;;;;;5100765;28;20131;-81
2022/12/25 06:14:09;;;;;;;87.53;24.45;;;7.60;99.90;;;;;;5101694;28;20049;-82
2022/12/25 06:16:35;;;;;;;79.63;25.50;;;7.60;99.90;;;;;;5101776;28;20047;-82
2022/12/25 06:19:00;;;;;;;95.15;25.73;;;7.60;99.90;;;;;;5109450;27;20050;-81
2022/12/25 06:21:26;;;;;;;89.00;26.42;;;7.70;99.90;;;;;;5112147;28;20500;-82
2022/12/25 06:23:51;;;;;;;81.20;25.65;;;7.70;99.90;;;;;;5101888;27;20068;-82
2022/12/25 06:26:18;;;;;;;87.60;25.17;;;7.60;99.90;;;;;;5113389;27;20481;-82
2022/12/25 06:28:44;;;;;;;71.38;25.58;;;7.70;99.90;;;;;;5118375;27;20047;-83
2022/12/25 06:31:13;;;;;;;79.15;25.77;;;7.60;99.90;;;;;;5119085;28;20171;-82
2022/12/25 06:33:39;;;;;;;78.05;25.10;;;7.70;99.90;;;;;;5100720;28;20039;-83
2022/12/25 06:36:13;;;;;;;88.22;25.63;;;7.60;99.90;;;;;;5103805;28;20057;-80
2022/12/25 06:38:39;;;;;;;76.00;24.35;;;7.70;99.90;;;;;;5120492;27;20057;-82
2022/12/25 06:41:22;;;;;;;79.53;25.23;;;7.60;99.90;;;;;;5102030;28;20039;-81
2022/12/25 06:43:49;;;;;;;72.00;24.47;;;7.60;99.90;;;;;;5118358;28;20036;-82
2022/12/25 06:46:15;;;;;;;88.95;26.70;;;7.60;99.90;;;;;;5124313;27;20037;-82
2022/12/25 06:48:46;;;;;;;86.35;25.33;;;7.70;99.90;;;;;;5115663;27;20485;-82
2022/12/25 06:51:12;;;;;;;92.85;27.05;;;7.60;99.90;;;;;;5125547;27;20035;-82
2022/12/25 06:53:38;;;;;;;100.55;27.50;;;7.70;99.90;;;;;;5118410;27;20782;-82
2022/12/25 06:56:14;;;;;;;92.28;27.25;;;7.70;99.90;;;;;;5117090;27;20036;-82
2022/12/25 06:58:47;;;;;;;89.93;27.00;;;7.70;99.90;;;;;;5128622;27;20093;-80
2022/12/25 07:01:32;;;;;;;90.82;27.20;;;7.70;99.90;;;;;;5131064;27;20031;-82
2022/12/25 07:04:01;;;;;;;82.57;25.90;;;7.70;99.90;;;;;;5112550;28;20091;-81
2022/12/25 07:06:27;;;;;;;85.82;26.88;;;7.70;99.90;;;;;;5130183;27;20541;-82
2022/12/25 07:08:53;;;;;;;89.13;26.55;;;7.70;99.90;;;;;;5108653;27;20147;-82
2022/12/25 07:11:19;;;;;;;83.57;26.63;;;7.70;99.90;;;;;;5114507;27;20043;-82
2022/12/25 07:13:45;;;;;;;78.40;25.35;;;7.80;99.90;;;;;;5112134;27;20046;-82
2022/12/25 07:16:11;;;;;;;73.90;25.45;;;7.70;99.90;;;;;;5110431;28;20409;-82
2022/12/25 07:18:37;;;;;;;76.88;25.58;;;7.80;99.90;;;;;;5098509;28;20093;-82
2022/12/25 07:21:08;;;;;;;75.93;25.40;;;7.70;99.90;;;;;;5099661;27;20075;-82
2022/12/25 07:23:34;;;;;;;79.65;26.33;;;7.80;99.90;;;;;;5137653;27;20043;-82
2022/12/25 07:26:01;;;;;;;83.03;25.10;;;7.70;99.90;;;;;;5113004;28;20049;-82
2022/12/25 07:28:27;;;;;;;75.60;25.48;;;7.70;99.90;;;;;;5118550;28;20111;-81
2022/12/25 07:30:53;;;;;;;81.57;24.02;;;7.70;99.90;;;;;;5100470;28;20046;-82
2022/12/25 07:33:19;;;;;;;74.45;25.58;;;7.80;99.90;;;;;;5118869;28;20039;-81
2022/12/25 07:35:44;;;;;;;72.80;24.13;;;7.70;99.90;;;;;;5083071;27;20382;-81
2022/12/25 07:38:10;;;;;;;72.53;24.25;;;7.70;99.90;;;;;;5115206;27;20047;-82
2022/12/25 07:40:37;;;;;;;65.30;24.27;;;7.70;99.90;;;;;;5115355;28;20040;-82
2022/12/25 07:43:03;;;;;;;77.07;24.77;;;7.70;99.90;;;;;;5115692;27;20559;-81
2022/12/25 07:45:28;;;;;;;68.43;24.02;;;7.80;99.90;;;;;;5125972;27;20031;-81
2022/12/25 07:47:54;;;;;;;66.68;24.55;;;7.80;99.90;;;;;;5114799;27;20117;-81
2022/12/25 07:50:19;;;;;;;71.78;24.50;;;7.80;99.90;;;;;;5120352;27;20047;-82
2022/12/25 07:52:45;;;;;;;69.80;23.60;;;7.80;99.90;;;;;;5133012;27;20031;-82
2022/12/25 07:55:11;;;;;;;61.08;23.25;;;7.80;99.90;;;;;;5114072;27;20051;-80
2022/12/25 07:57:37;;;;;;;60.90;23.40;;;7.80;99.90;;;;;;5106146;27;20080;-81
2022/12/25 08:00:06;;;;;;;57.53;23.00;;;7.80;99.90;;;;;;5114622;27;20039;-81
2022/12/25 08:02:32;;;;;;;59.15;22.45;;;7.90;99.90;;;;;;5114603;27;20054;-82
2022/12/25 08:04:57;;;;;;;65.20;22.73;;;7.90;99.90;;;;;;5127704;27;20039;-82
2022/12/25 08:07:23;;;;;;;60.03;23.33;;;7.90;99.90;;;;;;5098950;27;20118;-82
2022/12/25 08:09:49;;;;;;;60.92;21.73;;;7.90;99.90;;;;;;5107289;28;20078;-82
2022/12/25 08:12:15;;;;;;;56.88;22.20;;;7.90;99.90;;;;;;5097582;28;20039;-82
2022/12/25 08:14:40;;;;;;;53.80;21.60;;;7.90;99.90;;;;;;5133837;27;20031;-82
2022/12/25 08:17:06;;;;;;;56.58;22.50;;;7.90;99.90;;;;;;5117081;27;20570;-80
2022/12/25 08:19:32;;;;;;;53.15;21.35;;;8.00;99.90;;;;;;5116574;27;20039;-82
2022/12/25 08:21:57;;;;;;;48.80;20.75;;;8.00;99.90;;;;;;5105995;28;20168;-82
2022/12/25 08:24:23;;;;;;;50.80;19.70;;;8.00;99.90;;;;;;5099048;28;20048;-80
2022/12/25 08:26:48;;;;;;;46.58;20.15;;;8.00;99.90;;;;;;5115328;28;20031;-80
2022/12/25 08:29:14;;;;;;;52.65;21.40;;;8.00;99.90;;;;;;5117887;28;20941;-79
2022/12/25 08:31:42;;;;;;;44.85;19.80;;;8.00;99.90;;;;;;5098819;28;20074;-81
2022/12/25 08:34:08;;;;;;;48.33;19.70;;;8.00;99.90;;;;;;5099566;28;20110;-82
2022/12/25 08:36:34;;;;;;;46.60;20.25;;;8.10;99.90;;;;;;5097817;28;20148;-81
2022/12/25 08:38:59;;;;;;;45.28;20.02;;;8.10;99.90;;;;;;5100498;28;20156;-81
2022/12/25 08:41:25;;;;;;;44.40;19.67;;;8.10;99.90;;;;;;5114219;28;20035;-81
2022/12/25 08:43:51;;;;;;;40.25;19.58;;;8.10;99.90;;;;;;5103321;28;20058;-82
2022/12/25 08:46:16;;;;;;;43.67;19.27;;;8.00;99.90;;;;;;5102369;28;20039;-81
2022/12/25 08:48:44;;;;;;;44.33;19.52;;;8.10;99.90;;;;;;5110082;28;20640;-81
2022/12/25 08:51:20;;;;;;;45.15;18.63;;;8.10;99.90;;;;;;5129077;28;20040;-81
2022/12/25 08:53:48;;;;;;;39.60;18.70;;;8.10;99.90;;;;;;5108480;28;20047;-81
2022/12/25 08:56:14;;;;;;;42.67;17.95;;;8.10;99.90;;;;;;5113376;28;20031;-81
2022/12/25 08:58:40;;;;;;;44.05;18.98;;;8.10;99.90;;;;;;5117700;28;20051;-81
2022/12/25 09:01:06;;;;;;;40.15;18.77;;;8.10;99.90;;;;;;5116047;28;20126;-79
2022/12/25 09:03:32;;;;;;;40.65;18.13;;;8.10;99.90;;;;;;5127420;28;20043;-81
2022/12/25 09:06:07;;;;;;;36.35;18.10;;;8.10;99.90;;;;;;5102573;28;20396;-81
2022/12/25 09:08:34;;;;;;;37.28;18.70;;;8.10;99.90;;;;;;5104646;28;20051;-81
2022/12/25 09:11:05;;;;;;;39.08;17.92;;;8.10;99.90;;;;;;5104550;28;20047;-81
2022/12/25 09:13:31;;;;;;;38.58;18.15;;;8.10;99.90;;;;;;5103093;28;20031;-82
2022/12/25 09:15:57;;;;;;;37.65;17.48;;;8.10;99.90;;;;;;5111294;28;20043;-81
2022/12/25 09:18:22;;;;;;;38.10;17.45;;;8.10;99.90;;;;;;5105505;27;20036;-82
2022/12/25 09:20:57;;;;;;;32.42;16.50;;;8.10;99.90;;;;;;5126524;27;20478;-79
2022/12/25 09:23:23;;;;;;;31.80;16.60;;;8.10;99.90;;;;;;5115477;28;20040;-81
2022/12/25 09:25:48;;;;;;;37.05;16.55;;;8.20;99.90;;;;;;5101024;28;20507;-81
2022/12/25 09:28:14;;;;;;;33.65;14.93;;;8.10;99.90;;;;;;5099354;28;20557;-80
2022/12/25 09:30:39;;;;;;;37.38;16.10;;;8.10;99.90;;;;;;5113479;27;20074;-81
2022/12/25 09:33:05;;;;;;;35.30;15.88;;;8.10;99.90;;;;;;5121262;27;20039;-81
2022/12/25 09:35:31;;;;;;;31.50;15.35;;;8.10;99.90;;;;;;5120502;27;20050;-81
2022/12/25 09:37:56;;;;;;;31.52;15.00;;;8.20;99.90;;;;;;5105128;28;20032;-81
2022/12/25 09:40:24;;;;;;;31.35;15.57;;;8.10;99.90;;;;;;5140100;27;20045;-81
2022/12/25 09:42:53;;;;;;;35.85;16.63;;;8.10;99.90;;;;;;5099928;27;20050;-82
2022/12/25 09:45:27;;;;;;;34.03;16.13;;;8.20;99.90;;;;;;5117428;27;20047;-81
2022/12/25 09:47:55;;;;;;;29.80;15.32;;;8.20;99.90;;;;;;5108745;27;20394;-81
2022/12/25 09:50:46;;;;;;;30.73;15.30;;;8.10;99.90;;;;;;5139674;27;20042;-81
2022/12/25 09:53:18;;;;;;;32.28;14.10;;;8.20;99.90;;;;;;5122794;27;20070;-81
2022/12/25 09:56:08;;;;;;;25.98;13.77;;;8.20;99.90;;;;;;5111922;27;20054;-81
2022/12/25 09:58:34;;;;;;;26.00;13.57;;;8.20;99.90;;;;;;5129915;27;20067;-82
2022/12/25 10:01:14;;;;;;;29.17;13.15;;;8.20;99.90;;;;;;5112235;28;20039;-81
2022/12/25 10:04:08;;;;;;;25.20;12.75;;;8.20;99.90;;;;;;5129340;27;20073;-80
2022/12/25 10:06:58;;;;;;;24.80;12.70;;;8.20;99.90;;;;;;5062519;27;20421;-81
2022/12/25 10:09:37;;;;;;;23.23;12.02;;;8.20;99.90;;;;;;5139663;27;20035;-80
2022/12/25 10:12:29;;;;;;;25.05;12.57;;;8.20;99.90;;;;;;5123373;27;20036;-80
2022/12/25 10:15:10;;;;;;;25.15;12.32;;;8.20;99.90;;;;;;5132844;27;20065;-81
2022/12/25 10:17:49;;;;;;;21.75;12.55;;;8.30;99.90;;;;;;5126600;27;20039;-80
2022/12/25 10:20:23;;;;;;;23.17;12.45;;;8.30;99.90;;;;;;5102254;28;20047;-81
2022/12/25 10:22:57;;;;;;;23.92;12.75;;;8.30;99.90;;;;;;5112119;27;20046;-82
2022/12/25 10:25:24;;;;;;;22.88;12.18;;;8.30;99.90;;;;;;5109044;28;20040;-81
2022/12/25 10:27:54;;;;;;;21.13;12.40;;;8.30;99.90;;;;;;5102728;28;20058;-80
2022/12/25 10:30:26;;;;;;;24.27;11.65;;;8.30;99.90;;;;;;5102310;28;20512;-81
2022/12/25 10:32:55;;;;;;;20.83;10.88;;;8.30;99.90;;;;;;5101606;27;20051;-81
2022/12/25 10:35:23;;;;;;;25.20;11.50;;;8.30;99.90;;;;;;5102843;28;20047;-80
2022/12/25 10:38:00;;;;;;;23.55;11.57;;;8.30;99.90;;;;;;5121263;28;20046;-81
2022/12/25 10:40:50;;;;;;;20.92;11.15;;;8.40;99.90;;;;;;5100455;28;20071;-80
2022/12/25 10:43:22;;;;;;;22.15;11.85;;;8.40;99.90;;;;;;5099887;28;20053;-80
2022/12/25 10:45:48;;;;;;;21.05;11.68;;;8.40;99.90;;;;;;5084008;28;20054;-80
2022/12/25 10:48:20;;;;;;;20.58;11.27;;;8.40;99.90;;;;;;5084234;28;20080;-79
2022/12/25 10:50:46;;;;;;;24.13;10.35;;;8.40;99.90;;;;;;5109099;27;20083;-80
2022/12/25 10:53:36;;;;;;;21.45;11.65;;;8.40;99.90;;;;;;5120938;27;20072;-81
2022/12/25 10:56:04;;;;;;;23.27;10.00;;;8.50;99.90;;;;;;5114403;27;20031;-81
2022/12/25 10:58:31;;;;;;;23.23;10.75;;;8.50;99.90;;;;;;5105550;27;20031;-80
2022/12/25 11:01:00;;;;;;;24.48;11.07;;;8.50;99.90;;;;;;5123195;27;20476;-81
2022/12/25 11:03:30;;;;;;;21.75;10.20;;;8.60;99.90;;;;;;5128991;27;20031;-80
2022/12/25 11:05:56;;;;;;;17.45;9.75;;;8.60;99.90;;;;;;5126588;27;20042;-80
2022/12/25 11:08:25;;;;;;;19.42;8.82;;;8.60;99.90;;;;;;5124595;27;20042;-81
2022/12/25 11:11:04;;;;;;;18.65;9.27;;;8.60;99.90;;;;;;5115576;27;20050;-80
2022/12/25 11:13:36;;;;;;;20.17;9.68;;;8.60;99.90;;;;;;5120601;27;20036;-81
2022/12/25 11:16:02;;;;;;;20.13;9.40;;;8.70;99.90;;;;;;5099918;27;20039;-81
2022/12/25 11:18:34;;;;;;;18.23;9.20;;;8.70;99.90;;;;;;5103764;27;20060;-80
2022/12/25 11:21:22;;;;;;;18.30;8.98;;;8.70;99.90;;;;;;5104592;27;20038;-80
2022/12/25 11:23:54;;;;;;;16.20;8.68;;;8.70;99.90;;;;;;5127932;27;20043;-81
2022/12/25 11:26:19;;;;;;;17.55;9.48;;;8.70;99.90;;;;;;5101800;28;20043;-81
2022/12/25 11:28:47;;;;;;;19.77;9.10;;;8.70;99.90;;;;;;5108304;27;20504;-81
2022/12/25 11:31:18;;;;;;;20.58;9.02;;;8.70;99.90;;;;;;5126918;27;20492;-81
2022/12/25 11:34:02;;;;;;;18.17;9.13;;;8.70;99.90;;;;;;5117374;27;20035;-80
2022/12/25 11:36:46;;;;;;;16.88;8.73;;;8.70;99.90;;;;;;5116507;27;20049;-81
2022/12/25 11:39:16;;;;;;;;;;;8.70;99.90;;;;;;5113377;27;20039;-80
2022/12/25 11:41:42;;;;;;;17.90;8.25;;;8.70;99.90;;;;;;5100149;28;20007;-81
2022/12/25 11:44:26;;;;;;;17.20;8.20;;;8.70;99.90;;;;;;5100343;28;20108;-81
2022/12/25 11:46:53;;;;;;;14.50;8.60;;;8.70;99.90;;;;;;5112971;27;20060;-80
2022/12/25 11:49:20;;;;;;;18.30;8.32;;;8.70;99.90;;;;;;5115104;27;21893;-80
2022/12/25 11:51:50;;;;;;;17.63;8.35;;;8.70;99.90;;;;;;5113052;27;20045;-82
2022/12/25 11:54:47;;;;;;;17.13;8.02;;;8.70;99.90;;;;;;5110965;27;20057;-81
2022/12/25 11:57:12;;;;;;;14.90;7.45;;;8.70;99.90;;;;;;5128791;27;20047;-81
2022/12/25 11:59:50;;;;;;;12.15;7.25;;;8.70;99.90;;;;;;5112614;28;20047;-81
2022/12/25 12:02:40;;;;;;;16.58;7.07;;;8.70;99.90;;;;;;5114984;27;20067;-81
2022/12/25 12:05:34;;;;;;;14.45;7.10;;;8.60;99.90;;;;;;5098560;27;20150;-82
2022/12/25 12:08:02;;;;;;;15.07;7.22;;;8.60;99.90;;;;;;5123888;27;20479;-82
2022/12/25 12:11:14;;;;;;;13.98;7.13;;;8.60;99.90;;;;;;5122810;27;20086;-82
2022/12/25 12:13:58;;;;;;;15.02;7.00;;;8.60;99.90;;;;;;5129213;27;20040;-82
2022/12/25 12:16:23;;;;;;;13.63;6.70;;;8.60;99.90;;;;;;5113637;27;20551;-82
2022/12/25 12:18:49;;;;;;;16.90;7.13;;;8.60;99.90;;;;;;5102471;27;20126;-82
2022/12/25 12:21:28;;;;;;;14.73;7.10;;;8.60;99.90;;;;;;5107942;28;20089;-82
2022/12/25 12:24:01;;;;;;;15.00;7.78;;;8.70;99.90;;;;;;5118214;27;20521;-82
2022/12/25 12:26:30;;;;;;;14.77;7.60;;;8.70;99.90;;;;;;5103560;27;20046;-83
2022/12/25 12:28:58;;;;;;;12.90;7.30;;;8.70;99.90;;;;;;5114780;27;20039;-80
2022/12/25 12:31:34;;;;;;;13.30;7.22;;;8.70;99.90;;;;;;5101561;27;20122;-82
2022/12/25 12:34:01;;;;;;;15.68;8.82;;;8.70;99.90;;;;;;5117549;27;20043;-81
2022/12/25 12:36:27;;;;;;;16.75;8.48;;;8.70;99.90;;;;;;5118861;27;20044;-83
2022/12/25 12:38:55;;;;;;;16.75;8.02;;;8.70;99.90;;;;;;5094725;28;20048;-82
2022/12/25 12:41:22;;;;;;;17.83;9.25;;;8.70;99.90;;;;;;5101007;28;20036;-82
2022/12/25 12:44:01;;;;;;;16.65;8.40;;;8.70;99.90;;;;;;5121092;28;20046;-80
2022/12/25 12:46:35;;;;;;;17.02;8.25;;;8.70;99.90;;;;;;5109209;28;20039;-82
2022/12/25 12:49:25;;;;;;;17.90;7.93;;;8.70;99.90;;;;;;5096751;28;20047;-82
2022/12/25 12:52:12;;;;;;;15.52;8.43;;;8.70;99.90;;;;;;5114848;28;20040;-82
2022/12/25 12:54:57;;;;;;;19.35;8.13;;;8.70;99.90;;;;;;5112931;27;20050;-82
2022/12/25 12:57:31;;;;;;;15.82;7.95;;;8.80;99.90;;;;;;5113185;28;20051;-82
2022/12/25 12:59:57;;;;;;;14.50;7.05;;;8.80;99.90;;;;;;5096568;28;20052;-81
2022/12/25 13:02:35;;;;;;;16.88;7.75;;;8.80;99.90;;;;;;5097353;28;20069;-82
2022/12/25 13:05:11;;;;;;;12.40;7.50;;;8.80;99.90;;;;;;5123267;27;20038;-82
2022/12/25 13:08:05;;;;;;;14.55;7.70;;;8.80;99.90;;;;;;5124869;27;20080;-83
2022/12/25 13:10:32;;;;;;;;;;;8.80;99.90;;;;;;5110206;27;20092;-82
2022/12/25 13:13:08;;;;;;;16.88;7.80;;;8.90;99.90;;;;;;5116236;27;19997;-81
2022/12/25 13:15:35;;;;;;;15.30;7.68;;;8.90;99.90;;;;;;5113499;27;20107;-83
2022/12/25 13:18:06;;;;;;;17.30;7.60;;;8.90;99.90;;;;;;5112573;27;20031;-82
2022/12/25 13:20:55;;;;;;;12.23;7.05;;;8.90;99.90;;;;;;5113761;27;20048;-82
2022/12/25 13:23:36;;;;;;;13.52;7.30;;;8.90;99.90;;;;;;5101704;27;20039;-83
2022/12/25 13:26:15;;;;;;;12.18;7.35;;;8.90;99.90;;;;;;5111987;27;20088;-80
2022/12/25 13:28:44;;;;;;;13.57;7.70;;;8.90;99.90;;;;;;5121683;27;20093;-83
2022/12/25 13:31:12;;;;;;;12.43;7.20;;;8.90;99.90;;;;;;5115205;27;20046;-82
2022/12/25 13:33:39;;;;;;;15.10;8.23;;;8.90;99.90;;;;;;5126388;27;20465;-81
2022/12/25 13:36:11;;;;;;;14.25;7.35;;;8.90;99.90;;;;;;5121970;27;20108;-82
2022/12/25 13:38:42;;;;;;;10.93;7.03;;;8.90;99.90;;;;;;5104550;27;20050;-82
2022/12/25 13:43:56;;;;;;;16.10;7.50;;;9.00;99.90;;;;;;5118034;27;20040;-82
2022/12/25 13:46:25;;;;;;;12.45;7.75;;;9.00;99.90;;;;;;5101509;27;20040;-82
2022/12/25 13:48:59;;;;;;;14.48;7.80;;;8.90;99.90;;;;;;5100491;27;20036;-83
2022/12/25 13:51:24;;;;;;;15.52;7.80;;;8.90;99.90;;;;;;5099872;27;20047;-83
2022/12/25 13:54:01;;;;;;;14.93;7.93;;;8.90;99.90;;;;;;5120991;27;20861;-83
2022/12/25 13:56:26;;;;;;;17.80;8.65;;;8.90;99.90;;;;;;5130035;27;20034;-83
2022/12/25 13:58:52;;;;;;;13.60;8.23;;;8.90;99.90;;;;;;5110325;27;20053;-82
2022/12/25 14:01:17;;;;;;;13.13;8.00;;;8.90;99.90;;;;;;5117846;27;20043;-83
2022/12/25 14:03:45;;;;;;;15.95;9.55;;;8.90;99.90;;;;;;5100999;28;20035;-81
2022/12/25 14:06:28;;;;;;;15.18;10.05;;;9.00;99.90;;;;;;5097908;28;20031;-81
2022/12/25 14:08:55;;;;;;;17.35;10.00;;;8.90;99.90;;;;;;5097902;28;20039;-82
2022/12/25 14:11:24;;;;;;;15.32;10.13;;;8.90;99.90;;;;;;5097722;28;20043;-82
2022/12/25 14:13:58;;;;;;;15.27;10.23;;;8.90;99.90;;;;;;5116585;28;20035;-83
2022/12/25 14:16:25;;;;;;;18.83;11.82;;;8.90;99.90;;;;;;5116426;28;20093;-82
2022/12/25 14:19:15;;;;;;;20.42;12.55;;;8.90;99.90;;;;;;5098078;28;20048;-83
2022/12/25 14:21:48;;;;;;;19.58;12.48;;;8.90;99.90;;;;;;5114876;28;20050;-82
2022/12/25 14:24:15;;;;;;;21.23;12.20;;;8.90;99.90;;;;;;5097274;28;20055;-82
2022/12/25 14:26:41;;;;;;;19.65;13.10;;;8.90;99.90;;;;;;5130204;27;20285;-80
2022/12/25 14:29:17;;;;;;;26.52;14.30;;;8.90;99.90;;;;;;5119057;27;20071;-82
2022/12/25 14:31:44;;;;;;;25.17;15.70;;;8.90;99.90;;;;;;5132528;27;20433;-82
2022/12/25 14:34:16;;;;;;;26.50;15.70;;;8.90;99.90;;;;;;5113529;27;20116;-82
2022/12/25 14:36:42;;;;;;;28.38;17.25;;;8.90;99.90;;;;;;5110993;27;20047;-82
2022/12/25 14:39:30;;;;;;;28.27;17.60;;;8.90;99.90;;;;;;5106891;28;20051;-82
2022/12/25 14:41:56;;;;;;;32.15;19.00;;;8.90;99.90;;;;;;5106584;27;20039;-82